Airfield :
LOGIN :

Register | Disclaimer

   EN    FR    IT 

 










Legend :    VFR   Marginal VFR   IFR   Intensive IFR   Very Intensive IFR
Visi :
Ceiling :
>= 8 km
>= 3000ft
5 to 8 km
1000 to 3000 ft
1500m to 5 km
500 to 1000 ft
800 to 1500m
200 to 500 ft
< 800m
< 200 ft
Symbols :   Thunderstorms  Fog  Heavy snow  Heavy precipitations  Wind > 20 kt
SIGMETs :     Misc.  Thunderstorms  Icing  Turbulence  Mountain Waves  Volcanic Ashes







- Airport Elevation : 3 ft
- IATA code : DHR


EHKD - Den Helder De Kooy

CURRENT METAR :
  • 230916Z AUTO 21026KT 180V260 9999 FEW012 OVC016 12/10 Q0992 WHT 20025G35KT 9999 SCT018 BKN020 TEMPO 22030G45KT 4000 SHRA FEW012 SCT015CB BKN018

EXPIRED METARs :
  • 230855Z AUTO 21026G36KT 190V250 9999 FEW012 FEW015CB OVC018 12/10 Q0991 WHT 20025G35KT 9999 SCT018 BKN020 TEMPO 22030G45KT 4000 SHRA FEW012 SCT015CB BKN018
  • 230844Z AUTO 21027KT 180V240 4400 -SHRA BKN015CB BKN017 OVC021 12/10 Q0991 GRN 20025G35KT 9999 SCT018 BKN020 TEMPO 22030G45KT 4000 SHRA FEW012 SCT015CB BKN018
  • 230825Z AUTO 20031KT 6000 SHGR RA FEW015CB BKN026 OVC032 11/09 Q0991 RERA REDZ WHT 20025G35KT 9999 BKN025 TEMPO 22030G45KT 4500 SHRA FEW012 SCT015CB BKN018
  • 230807Z AUTO 20030G40KT 9999 +DZRA FEW015CB BKN025 OVC029 12/08 Q0991 BLU 20025G35KT 9999 BKN025 TEMPO 22030G45KT 4500 SHRA FEW012 SCT015CB BKN018
  • 230755Z AUTO 20029G41KT 9999 DZRA FEW016CB SCT030 BKN039 OVC044 12/08 Q0990 BLU 20025G35KT 9999 BKN030 TEMPO 22030G45KT 4500 SHRA FEW012 SCT015CB BKN018
  • 230725Z AUTO 20027G38KT 9999 BKN034 BKN042 OVC051 13/06 Q0991 BLU 18022G32KT 9999 BKN030
  • 230655Z AUTO 19021G32KT 9999 SCT036 BKN049 BKN064 13/06 Q0990 BLU 18022G32KT 9999 BKN030
  • 230633Z AUTO 18022KT 9999 OVC038 12/06 Q0990 BLU 18022G32KT 9999 BKN030
  • 230625Z AUTO 18022KT 9999 BKN040 OVC047 12/06 Q0991 BLU 18022G32KT CAVOK

TAF TAF EHKD
Valid from the 23 at 06:00 until the 23 at 18:00 UTC


230515Z 2306/2318 18020G30KT 9999 SCT030
BECMG 2308/2310 SCT018 BKN020
TEMPO 2308/2313 22030G45KT 4500 SHRA FEW012 SCT015CB BKN018
BECMG 2312/2314 25015G30KT CAVOK
TEMPO 2316/2318 23025G37KT
No reported NOTAMs for that airfield.



MET'MAP, your aeronautical weather chart ! - Copyright ORBIFLY December 2007 - Disclaimer

ORBIFLY MET'MAP TEAM :

Programming & Development : Alexandra Zaïnal
Concept & Development : Baudouin d'Aumeries
Co-Development & Prog : Marc-Olivier Méhu
Technical & hardware support : Manuel Goepfert

Contact : metmap@orbifly.com




SOURCES & CREDITS :

   NOAA